Time;durP1;ratioP1;P1;durP2;ratioP2;P2;SDS_P1;SDS_P2;PMS_P1;PMS_P2;Temp;Humidity;BMP_temperature;BMP_pressure;BME280_temperature;BME280_humidity;BME280_pressure;Samples;Min_cycle;Max_cycle;Signal;HPM_P1;HPM_P2
2021/07/29 00:00:01;;;;;;;1999.90;999.90;;;20.20;99.90;;;;;;4884259;29;20944;-80
2021/07/29 00:02:26;;;;;;;1999.90;999.90;;;20.10;99.90;;;;;;4883588;29;20173;-81
2021/07/29 00:04:52;;;;;;;1999.90;999.90;;;20.10;99.90;;;;;;4884544;29;20181;-81
2021/07/29 00:07:17;;;;;;;1999.90;999.90;;;20.20;99.90;;;;;;4883390;29;20232;-81
2021/07/29 00:09:47;;;;;;;1999.90;999.90;;;20.20;99.90;;;;;;4897334;29;20179;-81
2021/07/29 00:12:13;;;;;;;1999.90;999.90;;;20.20;99.90;;;;;;4882730;29;20243;-81
2021/07/29 00:14:46;;;;;;;1999.90;999.90;;;20.10;99.90;;;;;;4883116;29;20422;-81
2021/07/29 00:17:27;;;;;;;1999.90;999.90;;;20.20;99.90;;;;;;4883476;29;20459;-81
2021/07/29 00:19:52;;;;;;;1999.90;999.90;;;20.10;99.90;;;;;;4883432;29;20757;-81
2021/07/29 00:22:18;;;;;;;1999.90;999.90;;;20.10;99.90;;;;;;4883642;29;20472;-81
2021/07/29 00:24:43;;;;;;;1999.90;999.90;;;20.10;99.90;;;;;;4883463;29;20303;-81
2021/07/29 00:27:09;;;;;;;1999.90;999.90;;;20.10;99.90;;;;;;4897577;29;20252;-81
2021/07/29 00:29:35;;;;;;;1999.90;999.90;;;20.00;99.90;;;;;;4883675;29;20568;-81
2021/07/29 00:32:00;;;;;;;1999.90;999.90;;;20.00;99.90;;;;;;4883621;29;20227;-81
2021/07/29 00:34:26;;;;;;;1999.90;999.90;;;20.10;99.90;;;;;;4883906;29;20207;-80
2021/07/29 00:36:51;;;;;;;1999.90;999.90;;;20.10;99.90;;;;;;4883380;29;20199;-80
2021/07/29 00:39:17;;;;;;;1999.90;999.90;;;20.10;99.90;;;;;;4883433;29;20170;-82
2021/07/29 00:41:43;;;;;;;1999.90;999.90;;;20.10;99.90;;;;;;4883494;29;20671;-80
2021/07/29 00:44:08;;;;;;;1999.90;999.90;;;20.10;99.90;;;;;;4883534;29;20169;-80
2021/07/29 00:46:35;;;;;;;1999.90;999.90;;;20.10;99.90;;;;;;4883726;29;20634;-79
2021/07/29 00:49:04;;;;;;;1999.90;999.90;;;20.10;99.90;;;;;;4884088;29;20172;-79
2021/07/29 00:51:32;;;;;;;1999.90;999.90;;;20.10;99.90;;;;;;4883775;29;20420;-80
2021/07/29 00:53:59;;;;;;;1999.90;999.90;;;20.10;99.90;;;;;;4882192;29;20447;-79
2021/07/29 00:56:26;;;;;;;1999.90;999.90;;;20.00;99.90;;;;;;4883562;29;20542;-79
2021/07/29 00:58:52;;;;;;;1999.90;999.90;;;19.90;99.90;;;;;;4883495;29;20408;-79
2021/07/29 01:01:17;;;;;;;1999.90;999.90;;;19.90;99.90;;;;;;4883018;29;20922;-80
2021/07/29 01:03:43;;;;;;;1999.90;999.90;;;19.90;99.90;;;;;;4883107;29;20411;-79
2021/07/29 01:06:08;;;;;;;1999.90;999.90;;;19.80;99.90;;;;;;4882285;29;20228;-80
2021/07/29 01:08:57;;;;;;;1999.90;999.90;;;19.80;99.90;;;;;;4883150;29;20171;-80
2021/07/29 01:11:23;;;;;;;1999.90;999.90;;;19.70;99.90;;;;;;4881857;29;20174;-80
2021/07/29 01:13:49;;;;;;;1999.90;999.90;;;19.70;99.90;;;;;;4882758;29;20916;-79
2021/07/29 01:16:14;;;;;;;1999.90;999.90;;;19.70;99.90;;;;;;4882594;29;20281;-80
2021/07/29 01:18:40;;;;;;;1999.90;999.90;;;19.30;99.90;;;;;;4882607;29;20202;-79
2021/07/29 01:21:06;;;;;;;1999.90;999.90;;;19.20;99.90;;;;;;4882510;29;20544;-80
2021/07/29 01:23:31;;;;;;;1999.90;999.90;;;19.20;99.90;;;;;;4883051;29;20183;-80
2021/07/29 01:25:57;;;;;;;1999.90;999.90;;;19.20;99.90;;;;;;4882105;29;20574;-80
2021/07/29 01:28:23;;;;;;;1999.90;999.90;;;19.20;99.90;;;;;;4882842;29;20178;-82
2021/07/29 01:30:49;;;;;;;1999.90;999.90;;;19.10;99.90;;;;;;4881628;29;20171;-80
2021/07/29 01:33:15;;;;;;;1999.90;999.90;;;18.80;99.90;;;;;;4881324;29;20509;-80
2021/07/29 01:35:43;;;;;;;1999.90;999.90;;;18.80;99.90;;;;;;4882629;29;20282;-80
2021/07/29 01:38:08;;;;;;;1999.90;999.90;;;18.80;99.90;;;;;;4883339;29;20227;-80
2021/07/29 01:40:34;;;;;;;1999.90;999.90;;;18.80;99.90;;;;;;4883120;29;20904;-80
2021/07/29 01:42:59;;;;;;;1999.90;999.90;;;18.80;99.90;;;;;;4883102;29;20175;-80
2021/07/29 01:45:25;;;;;;;1999.90;999.90;;;18.80;99.90;;;;;;4883090;29;20179;-82
2021/07/29 01:47:51;;;;;;;1999.90;999.90;;;18.80;99.90;;;;;;4883470;29;20263;-81
2021/07/29 01:50:16;;;;;;;1999.90;999.90;;;18.80;99.90;;;;;;4883053;29;20188;-80
2021/07/29 01:52:42;;;;;;;1999.90;999.90;;;18.90;99.90;;;;;;4883246;29;20226;-80
2021/07/29 01:55:08;;;;;;;1999.90;999.90;;;18.90;99.90;;;;;;4882764;29;20203;-80
2021/07/29 01:57:36;;;;;;;1999.90;999.90;;;18.90;99.90;;;;;;4883158;29;20183;-80
2021/07/29 02:00:04;;;;;;;1999.90;999.90;;;18.90;99.90;;;;;;4897828;29;20498;-80
2021/07/29 02:02:29;;;;;;;1999.90;999.90;;;18.90;99.90;;;;;;4883088;29;20444;-82
2021/07/29 02:04:55;;;;;;;1999.90;999.90;;;18.90;99.90;;;;;;4883174;29;20408;-80
2021/07/29 02:07:21;;;;;;;1999.90;999.90;;;18.90;99.90;;;;;;4883594;29;20218;-80
2021/07/29 02:09:46;;;;;;;1999.90;999.90;;;18.90;99.90;;;;;;4883362;29;20173;-80
2021/07/29 02:12:12;;;;;;;1999.90;999.90;;;18.90;99.90;;;;;;4883206;29;20198;-82
2021/07/29 02:14:38;;;;;;;1999.90;999.90;;;18.90;99.90;;;;;;4882893;29;20198;-82
2021/07/29 02:17:04;;;;;;;1999.90;999.90;;;18.90;99.90;;;;;;4881895;29;20551;-82
2021/07/29 02:19:30;;;;;;;1999.90;999.90;;;18.80;99.90;;;;;;4883274;29;20175;-82
2021/07/29 02:21:56;;;;;;;1999.90;999.90;;;18.80;99.90;;;;;;4883560;29;20825;-82
2021/07/29 02:24:21;;;;;;;1999.90;999.90;;;18.80;99.90;;;;;;4881311;29;20507;-82
2021/07/29 02:26:47;;;;;;;1999.90;999.90;;;18.80;99.90;;;;;;4883626;29;20237;-82
2021/07/29 02:29:13;;;;;;;1999.90;999.90;;;18.80;99.90;;;;;;4883113;29;20175;-82
2021/07/29 02:31:38;;;;;;;1999.90;999.90;;;18.80;99.90;;;;;;4882874;29;20254;-82
2021/07/29 02:34:04;;;;;;;1999.90;999.90;;;18.80;99.90;;;;;;4885983;29;20266;-82
2021/07/29 02:36:30;;;;;;;1999.90;999.90;;;18.90;99.90;;;;;;4885374;29;20210;-82
2021/07/29 02:38:55;;;;;;;1999.90;999.90;;;18.90;99.90;;;;;;4885425;29;20171;-83
2021/07/29 02:41:21;;;;;;;1999.90;999.90;;;18.90;99.90;;;;;;4885101;29;20173;-83
2021/07/29 02:43:47;;;;;;;1999.90;999.90;;;18.90;99.90;;;;;;4885783;29;20175;-83
2021/07/29 02:46:13;;;;;;;1999.90;999.90;;;18.90;99.90;;;;;;4885160;29;20195;-83
2021/07/29 02:48:38;;;;;;;1999.90;999.90;;;18.90;99.90;;;;;;4886930;29;20507;-83
2021/07/29 02:51:04;;;;;;;1999.90;999.90;;;18.80;99.90;;;;;;4886907;29;20403;-83
2021/07/29 02:53:33;;;;;;;1999.90;999.90;;;18.70;99.90;;;;;;4885517;29;20178;-83
2021/07/29 02:55:59;;;;;;;1999.90;999.90;;;18.70;99.90;;;;;;4884698;29;20274;-83
2021/07/29 02:58:25;;;;;;;1999.90;999.90;;;18.70;99.90;;;;;;4886494;29;20411;-83
2021/07/29 03:00:55;;;;;;;1999.90;999.90;;;18.60;99.90;;;;;;4886285;29;20411;-83
2021/07/29 03:03:21;;;;;;;1999.90;999.90;;;18.60;99.90;;;;;;4886498;29;20470;-83
2021/07/29 03:05:46;;;;;;;1999.90;999.90;;;18.50;99.90;;;;;;4886052;29;20843;-83
2021/07/29 03:08:13;;;;;;;1999.90;999.90;;;18.40;99.90;;;;;;4886411;29;20238;-83
2021/07/29 03:10:38;;;;;;;1999.90;999.90;;;18.30;99.90;;;;;;4886041;29;20231;-84
2021/07/29 03:13:04;;;;;;;1999.90;999.90;;;18.20;99.90;;;;;;4884561;29;20506;-83
2021/07/29 03:15:31;;;;;;;1999.90;999.90;;;18.20;99.90;;;;;;4886268;29;20217;-84
2021/07/29 03:17:57;;;;;;;1999.90;999.90;;;18.20;99.90;;;;;;4900315;29;20334;-84
2021/07/29 03:20:23;;;;;;;1999.90;999.90;;;18.20;99.90;;;;;;4884654;29;20427;-84
2021/07/29 03:22:49;;;;;;;1999.90;999.90;;;18.10;99.90;;;;;;4886146;29;20484;-84
2021/07/29 03:25:15;;;;;;;1999.90;999.90;;;18.00;99.90;;;;;;4900127;29;20458;-83
2021/07/29 03:27:40;;;;;;;1999.90;999.90;;;17.90;99.90;;;;;;4883747;29;20232;-83
2021/07/29 03:30:06;;;;;;;1999.90;999.90;;;18.00;99.90;;;;;;4885876;29;20518;-84
2021/07/29 03:32:32;;;;;;;1999.90;999.90;;;18.10;99.90;;;;;;4885775;29;20198;-84
2021/07/29 03:34:58;;;;;;;1999.90;999.90;;;18.20;99.90;;;;;;4899456;29;20435;-84
2021/07/29 03:37:23;;;;;;;1999.90;999.90;;;18.20;99.90;;;;;;4884038;29;20214;-84
2021/07/29 03:39:52;;;;;;;1999.90;999.90;;;18.10;99.90;;;;;;4885333;29;20249;-84
2021/07/29 03:42:22;;;;;;;1999.90;999.90;;;18.00;99.90;;;;;;4884121;29;20235;-84
2021/07/29 03:44:48;;;;;;;1999.90;999.90;;;18.10;99.90;;;;;;4885019;29;20407;-83
2021/07/29 03:47:13;;;;;;;1999.90;999.90;;;18.10;99.90;;;;;;4885752;29;20469;-82
2021/07/29 03:49:39;;;;;;;1999.90;999.90;;;18.20;99.90;;;;;;4883714;29;20799;-84
2021/07/29 03:52:05;;;;;;;1999.90;999.90;;;18.30;99.90;;;;;;4885325;29;20531;-83
2021/07/29 03:54:33;;;;;;;1999.90;999.90;;;18.30;99.90;;;;;;4885901;29;20265;-82
2021/07/29 03:56:58;;;;;;;1999.90;999.90;;;18.30;99.90;;;;;;4883500;29;20247;-84
2021/07/29 03:59:24;;;;;;;1999.90;999.90;;;18.30;99.90;;;;;;4885543;29;20407;-82
2021/07/29 04:01:50;;;;;;;1999.90;999.90;;;18.20;99.90;;;;;;4885227;29;20627;-83
2021/07/29 04:04:15;;;;;;;1999.90;999.90;;;18.30;99.90;;;;;;4884317;29;20177;-81
2021/07/29 04:10:13;;;;;;;1999.90;999.90;;;18.30;99.90;;;;;;3220116;27;20229;-82
2021/07/29 04:13:35;;;;;;;1999.90;999.90;;;18.30;99.90;;;;;;4881296;29;20435;-83
2021/07/29 04:16:38;;;;;;;1999.90;999.90;;;18.30;99.90;;;;;;4805819;29;20470;-82
2021/07/29 04:20:01;;;;;;;;;;;;;;;;;;;;;
2021/07/29 04:34:27;;;;;;;1999.90;999.90;;;18.40;99.90;;;;;;4819917;29;20438;-83
2021/07/29 04:40:57;;;;;;;;;;;;;;;;;;;;;
2021/07/29 04:44:07;;;;;;;1999.90;999.90;;;18.20;99.90;;;;;;4793050;29;20431;-82
2021/07/29 04:47:16;;;;;;;;;;;;;;;;;;;;;
2021/07/29 04:50:40;;;;;;;;;;;;;;;;;;;;;
2021/07/29 04:53:50;;;;;;;1999.90;999.90;;;18.30;99.90;;;;;;4756402;30;20440;-82
2021/07/29 04:56:50;;;;;;;1999.90;999.90;;;18.30;99.90;;;;;;4753858;30;20480;-82
2021/07/29 04:59:46;;;;;;;1999.90;999.90;;;18.30;99.90;;;;;;4823483;29;20426;-82
2021/07/29 05:05:56;;;;;;;1999.90;999.90;;;18.30;99.90;;;;;;4844359;29;20425;-82
2021/07/29 05:08:49;;;;;;;;;;;;;;;;;;;;;
2021/07/29 05:11:47;;;;;;;1999.90;999.90;;;18.40;99.90;;;;;;4847634;29;20488;-83
2021/07/29 05:14:57;;;;;;;;;;;;;;;;;;;;;
2021/07/29 05:18:03;;;;;;;1999.90;999.90;;;18.40;99.90;;;;;;4847347;29;20468;-82
2021/07/29 05:24:22;;;;;;;1999.90;999.90;;;18.50;99.90;;;;;;4845737;29;20417;-82
2021/07/29 05:27:09;;;;;;;1999.90;999.90;;;18.50;99.90;;;;;;4881110;23;20562;-83
2021/07/29 05:29:59;;;;;;;1999.90;999.90;;;18.60;99.90;;;;;;4883590;29;20429;-83
2021/07/29 05:33:04;;;;;;;;;;;;;;;;;;;;;
2021/07/29 05:36:05;;;;;;;1999.90;999.90;;;18.50;99.90;;;;;;4882568;29;20463;-82
2021/07/29 05:38:47;;;;;;;1999.90;999.90;;;18.50;99.90;;;;;;4883217;29;20452;-82
2021/07/29 05:41:20;;;;;;;1999.90;999.90;;;18.50;99.90;;;;;;4898227;29;20416;-82
2021/07/29 05:44:02;;;;;;;1999.90;999.90;;;18.50;99.90;;;;;;4882234;29;20451;-83
2021/07/29 05:46:37;;;;;;;1999.90;999.90;;;18.60;99.90;;;;;;4893836;23;20529;-82
2021/07/29 05:49:22;;;;;;;1999.90;999.90;;;18.60;99.90;;;;;;4845776;29;20401;-82
2021/07/29 05:51:58;;;;;;;1999.90;999.90;;;18.40;99.90;;;;;;4878060;29;20405;-82
2021/07/29 05:54:24;;;;;;;1999.90;999.90;;;18.60;99.90;;;;;;4845941;29;20412;-82
2021/07/29 05:57:01;;;;;;;1999.90;999.90;;;18.60;99.90;;;;;;4845124;29;20477;-81
2021/07/29 05:59:27;;;;;;;1999.90;999.90;;;18.60;99.90;;;;;;4845357;29;20416;-82
2021/07/29 06:01:55;;;;;;;1999.90;999.90;;;18.60;99.90;;;;;;4844819;29;20482;-82
2021/07/29 06:04:53;;;;;;;1999.90;999.90;;;18.70;99.90;;;;;;4846402;29;20650;-82
2021/07/29 06:07:24;;;;;;;1999.90;999.90;;;18.60;99.90;;;;;;4849450;29;20445;-84
2021/07/29 06:09:52;;;;;;;1999.90;999.90;;;18.60;99.90;;;;;;4854952;29;20453;-84
2021/07/29 06:12:24;;;;;;;1999.90;999.90;;;18.50;99.90;;;;;;4852448;29;20507;-84
2021/07/29 06:14:53;;;;;;;1999.90;999.90;;;18.60;99.90;;;;;;4851875;29;20381;-83
2021/07/29 06:17:27;;;;;;;1999.90;999.90;;;18.50;99.90;;;;;;4851280;29;20858;-83
2021/07/29 06:19:53;;;;;;;1999.90;999.90;;;18.50;99.90;;;;;;4850905;29;20425;-83
2021/07/29 06:22:18;;;;;;;1999.90;999.90;;;18.60;99.90;;;;;;4851854;29;20440;-83
2021/07/29 06:24:44;;;;;;;1999.90;999.90;;;18.60;99.90;;;;;;4852012;29;20640;-84
2021/07/29 06:27:10;;;;;;;1999.90;999.90;;;18.70;99.90;;;;;;4850497;29;20536;-84
2021/07/29 06:29:35;;;;;;;1999.90;999.90;;;18.70;99.90;;;;;;4850647;29;20179;-84
2021/07/29 06:32:04;;;;;;;1999.90;999.90;;;18.70;99.90;;;;;;4851569;29;20233;-84
2021/07/29 06:34:29;;;;;;;1999.90;999.90;;;18.80;99.90;;;;;;4851895;29;20183;-83
2021/07/29 06:36:55;;;;;;;1999.90;999.90;;;18.80;99.90;;;;;;4850335;29;20468;-83
2021/07/29 06:39:21;;;;;;;1999.90;999.90;;;18.70;99.90;;;;;;4851845;29;20223;-83
2021/07/29 06:41:47;;;;;;;1999.90;999.90;;;18.70;99.90;;;;;;4850803;29;20649;-83
2021/07/29 06:44:12;;;;;;;1999.90;999.90;;;18.60;99.90;;;;;;4852340;29;20228;-83
2021/07/29 06:46:39;;;;;;;1999.90;999.90;;;18.60;99.90;;;;;;4850500;29;20491;-83
2021/07/29 06:49:07;;;;;;;1999.90;999.90;;;18.60;99.90;;;;;;4848927;29;20187;-83
2021/07/29 06:51:37;;;;;;;1999.90;999.90;;;18.60;99.90;;;;;;4849834;29;20415;-83
2021/07/29 06:54:06;;;;;;;1999.90;999.90;;;18.70;99.90;;;;;;4850271;29;20420;-83
2021/07/29 06:56:32;;;;;;;1999.90;999.90;;;18.70;99.90;;;;;;4849551;29;20464;-82
2021/07/29 06:58:59;;;;;;;1999.90;999.90;;;18.70;99.90;;;;;;4848102;29;20785;-82
2021/07/29 07:01:25;;;;;;;1999.90;999.90;;;18.80;99.90;;;;;;4849450;29;20416;-82
2021/07/29 07:03:51;;;;;;;1999.90;999.90;;;18.80;99.90;;;;;;4862920;29;20830;-83
2021/07/29 07:06:17;;;;;;;1999.90;999.90;;;18.80;99.90;;;;;;4848489;29;20504;-82
2021/07/29 07:08:43;;;;;;;1999.90;999.90;;;18.80;99.90;;;;;;4848619;29;20442;-82
2021/07/29 07:11:15;;;;;;;1999.90;999.90;;;18.80;99.90;;;;;;4848760;29;20179;-82
2021/07/29 07:13:43;;;;;;;1999.90;999.90;;;18.80;99.90;;;;;;4863385;29;20187;-82
2021/07/29 07:16:11;;;;;;;1999.90;999.90;;;18.80;99.90;;;;;;4848185;29;20472;-82
2021/07/29 07:18:37;;;;;;;1999.90;999.90;;;18.80;99.90;;;;;;4848878;29;20421;-82
2021/07/29 07:21:07;;;;;;;1999.90;999.90;;;19.00;99.90;;;;;;4847183;29;20473;-83
2021/07/29 07:23:34;;;;;;;1999.90;999.90;;;19.00;99.90;;;;;;4849286;29;20160;-82
2021/07/29 07:26:00;;;;;;;1999.90;999.90;;;19.00;99.90;;;;;;4848493;29;20608;-82
2021/07/29 07:28:25;;;;;;;1999.90;999.90;;;19.10;99.90;;;;;;4848567;29;20445;-82
2021/07/29 07:30:51;;;;;;;1999.90;999.90;;;19.30;99.90;;;;;;4848742;29;20440;-82
2021/07/29 07:33:19;;;;;;;1999.90;999.90;;;19.40;99.90;;;;;;4847731;29;20512;-83
2021/07/29 07:35:45;;;;;;;1999.90;999.90;;;19.50;99.90;;;;;;4848947;29;20583;-82
2021/07/29 07:38:11;;;;;;;1999.90;999.90;;;19.50;99.90;;;;;;4848484;29;20420;-82
2021/07/29 07:40:37;;;;;;;1999.90;999.90;;;19.60;99.90;;;;;;4849165;29;20164;-82
2021/07/29 07:43:03;;;;;;;1999.90;999.90;;;19.70;99.90;;;;;;4848262;29;20481;-82
2021/07/29 07:45:30;;;;;;;1999.90;999.90;;;19.70;99.90;;;;;;4848578;29;20406;-82
2021/07/29 07:47:55;;;;;;;1999.90;999.90;;;19.60;99.90;;;;;;4848792;29;20436;-82
2021/07/29 07:50:21;;;;;;;1999.90;999.90;;;19.50;99.90;;;;;;4847649;29;20761;-82
2021/07/29 07:52:47;;;;;;;1999.90;999.90;;;19.50;99.90;;;;;;4847154;29;20262;-82
2021/07/29 07:55:13;;;;;;;1999.90;999.90;;;19.50;99.90;;;;;;4847062;29;20191;-82
2021/07/29 07:57:47;;;;;;;1999.90;999.90;;;19.60;99.90;;;;;;4848750;29;20210;-82
2021/07/29 08:00:14;;;;;;;1999.90;999.90;;;19.70;99.90;;;;;;4849059;29;20680;-82
2021/07/29 08:02:40;;;;;;;1999.90;999.90;;;19.80;99.90;;;;;;4848570;29;20456;-82
2021/07/29 08:05:06;;;;;;;1999.90;999.90;;;19.80;99.90;;;;;;4848874;29;20409;-83
2021/07/29 08:07:32;;;;;;;1999.90;999.90;;;19.80;99.90;;;;;;4848620;29;20195;-82
2021/07/29 08:09:57;;;;;;;1999.90;999.90;;;19.70;99.30;;;;;;4848702;29;20413;-83
2021/07/29 08:12:23;;;;;;;1999.90;999.90;;;19.70;99.90;;;;;;4847128;29;20609;-82
2021/07/29 08:14:49;;;;;;;1999.90;999.90;;;19.80;99.90;;;;;;4847561;29;20340;-82
2021/07/29 08:17:14;;;;;;;1999.90;999.90;;;19.90;99.90;;;;;;4847418;29;20292;-83
2021/07/29 08:19:40;;;;;;;1999.90;999.90;;;19.80;99.90;;;;;;4847475;29;20193;-83
2021/07/29 08:22:06;;;;;;;1999.90;999.90;;;19.80;99.80;;;;;;4846046;29;20187;-82
2021/07/29 08:24:35;;;;;;;1999.90;999.90;;;19.60;96.80;;;;;;4848346;29;20182;-82
2021/07/29 08:27:01;;;;;;;1999.90;999.90;;;19.60;98.30;;;;;;4847832;29;20698;-83
2021/07/29 08:29:30;;;;;;;1999.90;999.90;;;19.60;99.70;;;;;;4847175;29;20416;-81
2021/07/29 08:31:59;;;;;;;1999.90;999.90;;;19.50;95.90;;;;;;4846753;29;20413;-82
2021/07/29 08:34:25;;;;;;;1999.90;999.90;;;19.50;97.40;;;;;;4848602;29;20406;-82
2021/07/29 08:36:51;;;;;;;1999.90;999.90;;;19.60;97.50;;;;;;4846653;29;21030;-82
2021/07/29 08:39:17;;;;;;;1999.90;999.90;;;19.50;98.20;;;;;;4847412;29;20583;-83
2021/07/29 08:41:43;;;;;;;1999.90;999.90;;;19.40;97.10;;;;;;4847371;29;20172;-83
2021/07/29 08:44:09;;;;;;;1999.90;999.90;;;19.50;97.00;;;;;;4845997;29;20405;-83
2021/07/29 08:46:35;;;;;;;1999.90;999.90;;;19.70;93.30;;;;;;4847317;29;20461;-82
2021/07/29 08:49:02;;;;;;;1999.90;999.90;;;19.70;91.20;;;;;;4861034;29;20428;-83
2021/07/29 08:51:28;;;;;;;1999.90;999.90;;;19.60;90.30;;;;;;4847217;29;20417;-82
2021/07/29 08:53:57;;;;;;;1999.90;999.90;;;19.50;90.40;;;;;;4846977;29;20492;-83
2021/07/29 08:56:28;;;;;;;1999.90;999.90;;;19.50;92.10;;;;;;4846841;29;20466;-83
2021/07/29 08:58:54;;;;;;;1999.90;999.90;;;19.50;93.10;;;;;;4845418;29;20441;-83
2021/07/29 09:01:20;;;;;;;1999.90;999.90;;;19.50;93.00;;;;;;4845302;29;20425;-82
2021/07/29 09:03:47;;;;;;;1999.90;999.90;;;19.50;92.30;;;;;;4845510;29;20172;-82
2021/07/29 09:06:15;;;;;;;1999.90;999.90;;;19.50;90.60;;;;;;4846087;29;20440;-82
2021/07/29 09:08:51;;;;;;;1999.90;999.90;;;19.40;90.10;;;;;;4846572;29;20969;-82
2021/07/29 09:11:37;;;;;;;1999.90;999.90;;;19.40;84.10;;;;;;4846772;29;20503;-82
2021/07/29 09:14:18;;;;;;;1999.90;999.90;;;19.50;84.00;;;;;;4846687;29;20420;-82
2021/07/29 09:17:05;;;;;;;1999.90;999.90;;;19.60;82.40;;;;;;4846340;29;20798;-82
2021/07/29 09:19:35;;;;;;;1999.90;999.90;;;19.80;79.90;;;;;;4845557;29;20401;-83
2021/07/29 09:22:18;;;;;;;1999.90;999.90;;;19.90;83.20;;;;;;4845531;29;20413;-83
2021/07/29 09:24:56;;;;;;;1999.90;999.90;;;20.00;86.50;;;;;;4844542;29;20949;-82
2021/07/29 09:27:38;;;;;;;1999.90;999.90;;;20.10;88.90;;;;;;4980621;23;21011;-78
2021/07/29 09:30:22;;;;;;;1999.90;999.90;;;20.20;88.50;;;;;;4883625;29;20419;-78
2021/07/29 09:33:14;;;;;;;1999.90;999.90;;;20.20;82.80;;;;;;4897027;29;20410;-78
2021/07/29 09:35:52;;;;;;;1999.90;999.90;;;20.10;82.60;;;;;;4880162;29;20443;-77
2021/07/29 09:38:29;;;;;;;1999.90;999.90;;;20.00;82.20;;;;;;4864055;29;20463;-78
2021/07/29 09:41:06;;;;;;;1999.90;999.90;;;20.00;80.40;;;;;;4863954;29;20463;-78
2021/07/29 09:43:36;;;;;;;1999.90;999.90;;;20.00;80.80;;;;;;4862471;29;20476;-78
2021/07/29 09:46:14;;;;;;;1999.90;999.90;;;20.10;78.20;;;;;;4863501;29;20491;-79
2021/07/29 09:48:41;;;;;;;1999.90;999.90;;;20.10;77.40;;;;;;4863755;29;20419;-78
2021/07/29 09:51:10;;;;;;;1999.90;999.90;;;20.10;74.50;;;;;;4863765;29;20427;-79
2021/07/29 09:53:36;;;;;;;1999.90;999.90;;;20.20;75.40;;;;;;4863522;29;20416;-78
2021/07/29 09:56:09;;;;;;;1999.90;999.90;;;20.40;72.30;;;;;;4863437;29;20832;-78
2021/07/29 09:58:35;;;;;;;1999.90;999.90;;;20.50;68.80;;;;;;4863562;29;20422;-78
2021/07/29 10:01:02;;;;;;;1999.90;999.90;;;20.70;72.00;;;;;;4863682;29;20423;-78
2021/07/29 10:03:30;;;;;;;1999.90;999.90;;;20.90;64.50;;;;;;4863602;29;20470;-78
2021/07/29 10:06:01;;;;;;;1999.90;999.90;;;21.20;50.30;;;;;;4877770;29;20450;-78
2021/07/29 10:08:31;;;;;;;1999.90;999.90;;;21.40;64.30;;;;;;4863304;29;20416;-78
2021/07/29 10:10:59;;;;;;;1999.90;999.90;;;21.70;61.70;;;;;;4863572;29;20481;-77
2021/07/29 10:13:34;;;;;;;1999.90;999.90;;;21.90;28.80;;;;;;4863514;29;20938;-78
2021/07/29 10:16:00;;;;;;;1999.90;999.90;;;22.00;32.10;;;;;;4862965;29;20827;-78
2021/07/29 10:18:25;;;;;;;1999.90;999.90;;;22.10;28.60;;;;;;4863036;29;20464;-79
2021/07/29 10:21:20;;;;;;;1999.90;999.90;;;22.20;25.30;;;;;;4863557;29;20173;-79
2021/07/29 10:23:57;;;;;;;1999.90;999.90;;;22.10;22.20;;;;;;4863133;29;20175;-79
2021/07/29 10:26:23;;;;;;;1999.90;999.90;;;21.90;25.60;;;;;;4863055;29;20871;-78
2021/07/29 10:28:49;;;;;;;1999.90;999.90;;;21.90;21.40;;;;;;4863091;29;20513;-78
2021/07/29 10:31:17;;;;;;;1999.90;999.90;;;21.70;23.20;;;;;;4863390;29;20503;-78
2021/07/29 10:33:44;;;;;;;1999.90;999.90;;;21.50;18.10;;;;;;4863171;29;20412;-77
2021/07/29 10:36:46;;;;;;;1999.90;999.90;;;21.30;19.20;;;;;;4862508;29;20466;-78
2021/07/29 10:39:13;;;;;;;1999.90;999.90;;;21.10;21.00;;;;;;4898790;29;20493;-78
2021/07/29 10:41:42;;;;;;;1999.90;999.90;;;20.80;25.30;;;;;;4865677;29;20963;-77
2021/07/29 10:44:29;;;;;;;1999.90;999.90;;;21.00;32.20;;;;;;4877937;29;20908;-78
2021/07/29 10:46:54;;;;;;;1999.90;999.90;;;21.40;44.10;;;;;;4863310;29;20476;-77
2021/07/29 10:49:20;;;;;;;1999.90;999.90;;;21.70;33.90;;;;;;4863464;29;20415;-78
2021/07/29 10:52:04;;;;;;;1999.90;999.90;;;22.00;29.60;;;;;;4864005;29;20177;-78
2021/07/29 10:54:30;;;;;;;1999.90;999.90;;;22.00;27.30;;;;;;4864570;29;20761;-78
2021/07/29 10:56:57;;;;;;;1999.90;999.90;;;22.10;29.80;;;;;;4866541;29;20978;-78
2021/07/29 10:59:23;;;;;;;1999.90;999.90;;;22.00;27.60;;;;;;4880774;29;20444;-78
2021/07/29 11:01:50;;;;;;;1999.90;999.90;;;21.80;27.50;;;;;;4866599;29;20416;-78
2021/07/29 11:04:16;;;;;;;1999.90;999.90;;;21.70;21.20;;;;;;4881124;29;20423;-78
2021/07/29 11:06:44;;;;;;;1999.90;999.90;;;21.90;22.50;;;;;;4866591;29;20438;-79
2021/07/29 11:09:20;;;;;;;1999.90;999.90;;;21.80;18.10;;;;;;4866861;29;20182;-77
2021/07/29 11:11:48;;;;;;;1999.90;999.90;;;21.90;19.90;;;;;;4866896;29;20456;-77
2021/07/29 11:14:35;;;;;;;1999.90;999.90;;;22.00;17.60;;;;;;4866537;29;20435;-77
2021/07/29 11:17:02;;;;;;;1999.90;999.90;;;22.20;15.40;;;;;;4866418;29;20555;-77
2021/07/29 11:19:28;;;;;;;1999.90;999.90;;;22.40;16.30;;;;;;4867238;29;20420;-78
2021/07/29 11:22:05;;;;;;;1999.90;999.90;;;22.50;12.20;;;;;;4880913;29;20420;-78
2021/07/29 11:24:32;;;;;;;1999.90;999.90;;;22.60;14.30;;;;;;4866292;29;20927;-77
2021/07/29 11:26:58;;;;;;;1999.90;999.90;;;22.90;23.80;;;;;;4865783;29;20864;-78
2021/07/29 11:29:24;;;;;;;1999.90;999.90;;;23.10;17.70;;;;;;4866566;29;20404;-78
2021/07/29 11:31:55;;;;;;;1999.90;999.90;;;23.60;20.80;;;;;;4866538;29;20492;-77
2021/07/29 11:34:31;;;;;;;1999.90;999.90;;;24.10;19.00;;;;;;4866585;29;20251;-78
2021/07/29 11:36:57;;;;;;;1999.90;999.90;;;24.10;4.40;;;;;;4865369;29;20467;-78
2021/07/29 11:39:26;;;;;;;1999.90;999.90;;;24.10;6.30;;;;;;4866883;29;20485;-77
2021/07/29 11:41:57;;;;;;;1999.90;999.90;;;24.30;4.80;;;;;;4864588;29;20206;-78
2021/07/29 11:44:35;;;;;;;1999.90;999.90;;;24.50;2.00;;;;;;4867057;29;20413;-78
2021/07/29 11:47:02;;;;;;;1999.90;999.90;;;24.40;1.00;;;;;;4866623;29;20436;-78
2021/07/29 11:49:27;;;;;;;1999.90;999.90;;;24.00;1.00;;;;;;4866034;29;20423;-77
2021/07/29 11:52:10;;;;;;;1999.90;999.90;;;24.00;1.00;;;;;;4866203;29;20412;-78
2021/07/29 11:54:36;;;;;;;1999.90;999.90;;;23.80;1.00;;;;;;4864905;29;20180;-79
2021/07/29 11:57:03;;;;;;;1999.90;999.90;;;23.50;1.00;;;;;;4865752;29;20540;-78
2021/07/29 11:59:39;;;;;;;1999.90;999.90;;;23.50;1.00;;;;;;4866322;29;20491;-77
2021/07/29 12:02:07;;;;;;;1999.90;999.90;;;23.40;1.00;;;;;;4865557;29;20436;-77
2021/07/29 12:04:42;;;;;;;1999.90;999.90;;;23.20;1.00;;;;;;4866193;29;20401;-79
2021/07/29 12:07:09;;;;;;;1999.90;999.90;;;23.10;1.00;;;;;;4879736;29;20431;-78
2021/07/29 12:09:41;;;;;;;1999.90;999.90;;;23.00;1.00;;;;;;4866112;29;20416;-78
2021/07/29 12:12:08;;;;;;;1999.90;999.90;;;22.90;1.00;;;;;;4866440;29;20385;-77
2021/07/29 12:14:35;;;;;;;1999.90;999.90;;;22.80;1.00;;;;;;4864805;29;20445;-78
2021/07/29 12:17:02;;;;;;;1999.90;999.90;;;23.10;1.00;;;;;;4865055;29;20484;-77
2021/07/29 12:19:27;;;;;;;1999.90;999.90;;;23.30;1.00;;;;;;4865537;29;20408;-78
2021/07/29 12:21:55;;;;;;;1999.90;999.90;;;23.30;1.00;;;;;;4865990;29;20413;-78
2021/07/29 12:24:21;;;;;;;1999.90;999.90;;;23.30;1.00;;;;;;4865422;29;20683;-78
2021/07/29 12:27:19;;;;;;;1999.90;999.90;;;23.20;1.00;;;;;;4863741;29;20507;-77
2021/07/29 12:29:46;;;;;;;1999.90;999.90;;;22.90;1.00;;;;;;4884129;29;20995;-78
2021/07/29 12:32:24;;;;;;;1999.90;999.90;;;22.90;1.00;;;;;;4864898;29;20503;-78
2021/07/29 12:34:51;;;;;;;1999.90;999.90;;;22.70;1.00;;;;;;4865062;29;20416;-77
2021/07/29 12:37:30;;;;;;;1999.90;999.90;;;22.70;1.00;;;;;;4863645;29;20464;-77
2021/07/29 12:39:56;;;;;;;1999.90;999.90;;;22.70;1.00;;;;;;4863721;29;20416;-78
2021/07/29 12:42:29;;;;;;;1999.90;999.90;;;22.90;1.00;;;;;;4864705;29;20417;-77
2021/07/29 12:44:58;;;;;;;1999.90;999.90;;;23.00;1.00;;;;;;4865414;29;20202;-78
2021/07/29 12:47:24;;;;;;;1999.90;999.90;;;23.10;1.00;;;;;;4864963;29;20431;-79
2021/07/29 12:49:50;;;;;;;1999.90;999.90;;;23.40;1.00;;;;;;4864896;29;20487;-78
2021/07/29 12:52:19;;;;;;;1999.90;999.90;;;23.50;3.70;;;;;;4863129;29;20455;-79